Time;durP1;ratioP1;P1;durP2;ratioP2;P2;SDS_P1;SDS_P2;PMS_P1;PMS_P2;Temp;Humidity;BMP_temperature;BMP_pressure;BME280_temperature;BME280_humidity;BME280_pressure;Samples;Min_cycle;Max_cycle;Signal;HPM_P1;HPM_P2
2022/08/12 00:43:36;;;;;;;4.20;1.88;;;19.10;68.80;;;;;;5015461;28;20206;-66
2022/08/12 00:48:48;;;;;;;4.30;1.77;;;19.10;69.00;;;;;;5015234;28;20734;-67
2022/08/12 00:51:16;;;;;;;3.63;1.65;;;19.10;69.20;;;;;;5015383;28;20254;-66
2022/08/12 00:53:43;;;;;;;2.50;2.00;;;19.10;69.30;;;;;;5015104;28;20671;-66
2022/08/12 00:56:09;;;;;;;2.58;2.03;;;19.20;69.40;;;;;;5015269;28;20208;-66
2022/08/12 00:58:44;;;;;;;2.65;1.90;;;19.20;69.40;;;;;;5014848;28;20207;-66
2022/08/12 01:01:11;;;;;;;2.05;1.80;;;19.20;69.50;;;;;;5014909;28;20238;-67
2022/08/12 01:11:59;;;;;;;1.98;1.50;;;19.20;70.40;;;;;;5014838;28;20277;-66
2022/08/12 01:14:28;;;;;;;1.67;1.58;;;19.10;71.40;;;;;;5014872;28;20695;-66
2022/08/12 01:16:56;;;;;;;3.25;1.90;;;19.00;71.10;;;;;;5014868;28;20247;-67
2022/08/12 01:19:23;;;;;;;2.60;1.70;;;19.00;71.70;;;;;;5014692;28;20242;-66
2022/08/12 01:22:29;;;;;;;2.30;1.77;;;18.80;72.20;;;;;;5014540;28;20238;-67
2022/08/12 01:25:02;;;;;;;1.85;1.60;;;18.80;72.90;;;;;;5014658;28;20606;-67
2022/08/12 01:27:32;;;;;;;3.22;1.90;;;18.60;73.40;;;;;;5014625;28;20215;-66
2022/08/12 01:30:02;;;;;;;3.38;1.65;;;18.60;73.80;;;;;;5014044;28;20301;-67
2022/08/12 01:32:30;;;;;;;2.78;1.80;;;18.50;74.60;;;;;;5014908;28;20230;-66
2022/08/12 01:35:03;;;;;;;3.17;1.98;;;18.40;74.90;;;;;;5014563;28;20253;-67
2022/08/12 01:37:32;;;;;;;2.88;1.83;;;18.40;75.10;;;;;;5014384;28;20222;-66
2022/08/12 01:40:02;;;;;;;3.45;1.83;;;18.30;75.40;;;;;;5014169;28;20203;-66
2022/08/12 01:42:33;;;;;;;2.15;1.92;;;18.30;75.80;;;;;;5014287;28;20235;-67
2022/08/12 01:45:01;;;;;;;1.70;1.60;;;18.30;75.90;;;;;;5014451;28;20713;-66
2022/08/12 01:47:41;;;;;;;4.22;1.80;;;18.30;76.40;;;;;;5014696;28;20219;-66
2022/08/12 01:50:17;;;;;;;1.98;1.83;;;18.20;76.80;;;;;;5014292;28;20218;-66
2022/08/12 01:52:56;;;;;;;9.70;2.00;;;18.20;76.60;;;;;;5014386;28;20321;-67
2022/08/12 01:55:28;;;;;;;2.92;1.60;;;18.20;76.80;;;;;;5014702;28;20203;-67
2022/08/12 01:58:06;;;;;;;1.83;1.60;;;18.20;77.90;;;;;;5014243;28;20298;-67
2022/08/12 02:00:47;;;;;;;2.97;1.70;;;18.20;77.50;;;;;;5013857;28;20617;-66
2022/08/12 02:03:26;;;;;;;3.08;1.77;;;18.20;77.90;;;;;;5013888;28;20213;-67
2022/08/12 02:11:43;;;;;;;2.50;1.95;;;18.00;79.10;;;;;;5015291;28;20226;-65
2022/08/12 02:14:46;;;;;;;3.33;1.70;;;18.00;79.60;;;;;;5015264;28;20206;-65
2022/08/12 02:17:39;;;;;;;3.25;2.10;;;18.00;79.70;;;;;;5012075;28;20210;-65
2022/08/12 02:20:13;;;;;;;2.30;1.60;;;17.90;80.00;;;;;;5013443;28;20290;-67
2022/08/12 02:22:43;;;;;;;1.95;1.60;;;17.80;80.50;;;;;;5014073;28;20308;-67
2022/08/12 02:25:14;;;;;;;5.00;1.80;;;17.80;80.60;;;;;;5014420;28;20613;-65
2022/08/12 02:27:44;;;;;;;2.45;1.55;;;17.80;80.60;;;;;;5013904;28;20207;-65
2022/08/12 02:30:13;;;;;;;2.63;1.90;;;17.80;80.90;;;;;;5013236;28;20241;-65
2022/08/12 02:32:42;;;;;;;3.33;1.95;;;17.80;80.90;;;;;;5013619;28;20231;-65
2022/08/12 02:35:13;;;;;;;2.67;1.98;;;17.90;81.00;;;;;;5013294;28;20615;-65
2022/08/12 02:37:41;;;;;;;3.72;1.85;;;17.90;80.90;;;;;;5013471;28;20235;-65
2022/08/12 02:40:10;;;;;;;1.80;1.70;;;17.90;81.20;;;;;;5012946;28;20737;-65
2022/08/12 02:42:43;;;;;;;3.38;2.00;;;17.90;81.20;;;;;;5012632;28;20234;-66
2022/08/12 02:45:14;;;;;;;3.75;1.73;;;17.90;81.20;;;;;;5017788;28;20231;-66
2022/08/12 02:47:42;;;;;;;2.65;1.77;;;18.00;81.20;;;;;;5018271;28;20206;-65
2022/08/12 02:50:10;;;;;;;3.45;1.83;;;17.90;81.40;;;;;;5012894;28;20301;-65
2022/08/12 02:52:38;;;;;;;9.38;4.60;;;17.90;82.50;;;;;;5013000;28;20223;-65
2022/08/12 02:55:14;;;;;;;3.97;2.00;;;18.00;82.60;;;;;;5013039;28;20206;-64
2022/08/12 02:57:43;;;;;;;2.55;2.05;;;18.00;83.30;;;;;;5012885;28;20569;-65
2022/08/12 03:00:14;;;;;;;2.33;1.90;;;17.90;83.20;;;;;;5012825;28;20203;-65
2022/08/12 03:02:45;;;;;;;2.83;1.90;;;17.90;83.40;;;;;;5013050;28;20525;-65
2022/08/12 03:05:14;;;;;;;4.78;1.80;;;18.00;83.60;;;;;;5012736;28;20239;-65
2022/08/12 03:07:45;;;;;;;2.55;1.90;;;17.90;83.70;;;;;;5012695;28;20206;-65
2022/08/12 03:10:14;;;;;;;4.65;2.00;;;17.90;83.80;;;;;;5012782;28;20250;-65
2022/08/12 03:12:43;;;;;;;3.97;2.15;;;17.90;84.40;;;;;;5012733;28;20247;-66
2022/08/12 03:15:14;;;;;;;3.25;2.28;;;17.90;84.40;;;;;;5012584;28;20602;-65
2022/08/12 03:17:50;;;;;;;2.03;1.83;;;17.90;84.40;;;;;;5012608;28;20207;-65
2022/08/12 03:20:20;;;;;;;3.33;1.85;;;17.80;84.70;;;;;;5012181;28;20644;-65
2022/08/12 03:22:48;;;;;;;5.00;1.98;;;17.80;85.10;;;;;;5012651;28;20318;-66
2022/08/12 03:25:17;;;;;;;4.25;2.17;;;17.70;85.50;;;;;;5012600;28;20223;-65
2022/08/12 03:27:48;;;;;;;2.30;1.98;;;17.70;86.00;;;;;;5012395;28;20211;-66
2022/08/12 03:30:18;;;;;;;2.22;1.95;;;17.60;85.90;;;;;;5012227;28;20211;-65
2022/08/12 03:32:47;;;;;;;3.50;2.10;;;17.50;86.60;;;;;;5012445;28;20281;-65
2022/08/12 03:35:23;;;;;;;3.80;1.95;;;17.50;86.80;;;;;;5012165;28;20207;-65
2022/08/12 03:37:50;;;;;;;4.50;1.88;;;17.40;87.20;;;;;;5012329;28;20210;-66
2022/08/12 04:02:25;;;;;;;2.35;2.15;;;16.80;91.20;;;;;;5052955;22;20777;-61
2022/08/12 04:04:53;;;;;;;5.47;2.00;;;16.80;91.50;;;;;;5045913;28;20194;-61
2022/08/12 04:07:20;;;;;;;4.10;2.10;;;16.70;91.80;;;;;;5053902;28;20217;-62
2022/08/12 04:09:47;;;;;;;2.88;1.77;;;16.60;92.20;;;;;;5053888;28;20657;-61
2022/08/12 04:15:00;;;;;;;3.97;2.30;;;16.70;92.50;;;;;;5053864;28;20204;-62
2022/08/12 04:17:30;;;;;;;2.15;2.00;;;16.70;92.50;;;;;;5054631;28;20292;-62
2022/08/12 04:19:57;;;;;;;5.18;2.20;;;16.70;92.60;;;;;;5054691;28;20240;-62
2022/08/12 04:22:28;;;;;;;2.78;2.25;;;16.70;92.90;;;;;;5053619;28;20238;-63
2022/08/12 04:24:57;;;;;;;4.40;2.40;;;16.70;92.90;;;;;;5054274;28;20209;-62
2022/08/12 04:27:24;;;;;;;4.90;2.20;;;16.70;93.20;;;;;;5053624;28;20295;-62
2022/08/12 04:29:52;;;;;;;2.97;2.30;;;16.70;93.00;;;;;;5054161;28;20676;-62
2022/08/12 04:32:19;;;;;;;4.55;2.30;;;16.70;93.20;;;;;;5053151;28;20268;-62
2022/08/12 04:34:47;;;;;;;3.08;2.45;;;16.60;93.60;;;;;;5053881;28;20212;-62
2022/08/12 04:37:14;;;;;;;4.45;1.85;;;16.60;93.70;;;;;;5053661;28;20209;-62
2022/08/12 04:39:43;;;;;;;2.87;2.33;;;16.60;94.00;;;;;;5053934;28;20202;-62
2022/08/12 04:42:10;;;;;;;2.83;2.20;;;16.50;94.10;;;;;;5053302;28;20260;-61
2022/08/12 04:44:37;;;;;;;2.63;2.20;;;16.50;94.30;;;;;;5054204;28;20209;-62
2022/08/12 04:47:04;;;;;;;3.60;2.37;;;16.50;94.30;;;;;;5053111;28;20748;-62
2022/08/12 04:49:34;;;;;;;2.53;2.00;;;16.70;94.60;;;;;;5053374;28;20213;-62
2022/08/12 04:52:03;;;;;;;5.07;2.45;;;16.50;94.70;;;;;;5053601;28;20320;-61
2022/08/12 04:54:32;;;;;;;3.83;2.10;;;16.50;94.80;;;;;;5054186;28;20646;-62
2022/08/12 04:56:59;;;;;;;4.18;2.50;;;16.40;95.00;;;;;;5054513;28;20215;-62
2022/08/12 04:59:26;;;;;;;4.53;2.33;;;16.40;95.30;;;;;;5054033;28;20206;-61
2022/08/12 05:01:53;;;;;;;2.30;2.00;;;16.40;95.50;;;;;;5053655;28;20791;-62
2022/08/12 05:04:24;;;;;;;3.20;2.15;;;16.40;95.50;;;;;;5054956;28;20213;-62
2022/08/12 05:06:51;;;;;;;3.10;2.40;;;16.40;95.50;;;;;;5057370;28;20252;-62
2022/08/12 05:09:20;;;;;;;3.03;2.10;;;16.40;95.30;;;;;;5056786;28;20205;-61
2022/08/12 05:11:48;;;;;;;5.15;2.53;;;16.60;95.10;;;;;;5056795;28;20258;-61
2022/08/12 05:14:15;;;;;;;4.82;2.40;;;16.70;94.90;;;;;;5056784;28;20573;-62
2022/08/12 05:16:42;;;;;;;3.20;2.47;;;16.80;94.80;;;;;;5056483;28;20206;-62
2022/08/12 05:19:09;;;;;;;3.20;2.35;;;16.90;94.70;;;;;;5056009;28;20210;-63
2022/08/12 05:21:36;;;;;;;3.88;2.30;;;17.00;94.70;;;;;;5056564;28;20226;-63
2022/08/12 05:24:03;;;;;;;3.75;2.35;;;17.00;94.60;;;;;;5056586;28;20201;-63
2022/08/12 05:26:31;;;;;;;5.47;2.30;;;17.10;94.60;;;;;;5056551;28;20664;-63
2022/08/12 05:28:58;;;;;;;6.78;2.63;;;17.20;94.70;;;;;;5056186;28;20209;-62
2022/08/12 05:31:24;;;;;;;2.80;2.40;;;17.10;94.90;;;;;;5055961;28;20701;-62
2022/08/12 05:33:51;;;;;;;3.22;2.17;;;17.20;94.90;;;;;;5056049;28;20213;-62
2022/08/12 05:36:18;;;;;;;5.32;2.35;;;17.30;94.90;;;;;;5056126;28;20197;-62
2022/08/12 05:38:58;;;;;;;2.72;1.80;;;17.40;94.80;;;;;;5056202;28;20208;-62
2022/08/12 05:41:26;;;;;;;4.25;2.20;;;17.60;94.60;;;;;;5056872;28;20233;-62
2022/08/12 05:43:58;;;;;;;4.03;2.00;;;18.30;93.80;;;;;;5056221;28;20612;-62
2022/08/12 05:46:26;;;;;;;6.78;2.17;;;20.00;90.80;;;;;;5055472;28;20230;-62
2022/08/12 05:48:54;;;;;;;2.80;2.00;;;22.10;84.00;;;;;;5055195;28;20287;-63
2022/08/12 05:51:23;;;;;;;3.00;2.17;;;24.10;75.90;;;;;;5055633;28;20299;-62
2022/08/12 05:53:50;;;;;;;3.47;1.67;;;25.90;69.30;;;;;;5056336;28;20750;-63
2022/08/12 05:56:22;;;;;;;4.40;2.10;;;27.30;63.90;;;;;;5055666;28;20209;-63
2022/08/12 05:58:50;;;;;;;3.63;2.20;;;28.50;59.90;;;;;;5055913;28;20209;-62
2022/08/12 06:01:18;;;;;;;3.95;1.98;;;29.60;56.90;;;;;;5055313;28;20225;-63
2022/08/12 06:03:45;;;;;;;4.07;2.17;;;30.60;54.00;;;;;;5055869;28;20684;-63
2022/08/12 06:06:15;;;;;;;2.90;1.70;;;31.40;52.40;;;;;;5055803;28;20236;-62
2022/08/12 06:08:43;;;;;;;3.08;1.90;;;32.10;50.40;;;;;;5056837;28;20215;-63
2022/08/12 06:11:11;;;;;;;4.57;1.63;;;32.90;49.00;;;;;;5055164;28;20213;-62
2022/08/12 06:13:40;;;;;;;4.70;1.63;;;33.60;47.50;;;;;;5055606;28;20743;-62
2022/08/12 06:16:08;;;;;;;1.98;1.70;;;34.20;46.20;;;;;;5055690;28;20201;-62
2022/08/12 06:18:38;;;;;;;2.38;1.70;;;34.70;45.20;;;;;;5056457;28;20206;-62
2022/08/12 06:21:06;;;;;;;1.95;1.70;;;35.00;44.60;;;;;;5056026;28;20213;-62
2022/08/12 06:23:33;;;;;;;2.47;1.80;;;35.50;43.50;;;;;;5056286;28;20550;-62
2022/08/12 06:26:00;;;;;;;3.65;1.70;;;35.90;42.80;;;;;;5056264;28;20233;-64
2022/08/12 06:28:29;;;;;;;3.58;1.90;;;36.00;42.10;;;;;;5056092;28;20212;-62
2022/08/12 06:30:57;;;;;;;2.00;1.80;;;35.80;42.20;;;;;;5056575;28;20224;-63
2022/08/12 06:33:23;;;;;;;4.18;1.63;;;35.60;42.40;;;;;;5056425;28;20216;-62
2022/08/12 06:35:52;;;;;;;3.90;1.80;;;36.10;41.80;;;;;;5056251;28;20492;-63
2022/08/12 06:38:20;;;;;;;4.50;1.60;;;36.80;40.60;;;;;;5055401;28;20216;-63
2022/08/12 06:43:37;;;;;;;2.13;1.52;;;37.70;39.10;;;;;;5055223;28;20274;-64
2022/08/12 06:46:04;;;;;;;4.63;1.60;;;37.80;38.70;;;;;;5054425;28;20233;-63
2022/08/12 06:48:31;;;;;;;2.80;1.70;;;38.50;38.20;;;;;;5055712;28;20210;-63
2022/08/12 06:51:02;;;;;;;2.40;1.50;;;39.10;37.30;;;;;;5054293;28;20214;-63
2022/08/12 06:53:31;;;;;;;4.47;1.70;;;39.70;36.90;;;;;;5055606;28;20212;-63
2022/08/12 06:56:00;;;;;;;2.97;1.45;;;40.20;35.80;;;;;;5055959;28;20205;-63
2022/08/12 06:58:28;;;;;;;5.35;1.70;;;40.60;35.90;;;;;;5054765;28;20235;-64
2022/08/12 07:00:56;;;;;;;4.15;1.73;;;41.00;35.50;;;;;;5054493;28;20209;-64
2022/08/12 07:03:26;;;;;;;1.98;1.50;;;41.60;35.10;;;;;;5055564;28;20215;-63
2022/08/12 07:05:54;;;;;;;3.15;1.90;;;41.90;33.90;;;;;;5056016;28;20235;-64
2022/08/12 07:08:22;;;;;;;2.45;1.63;;;41.90;33.60;;;;;;5055481;28;20247;-64
2022/08/12 07:10:57;;;;;;;4.00;1.67;;;41.40;34.50;;;;;;5056188;28;20205;-64
2022/08/12 07:13:25;;;;;;;3.10;1.60;;;41.40;33.70;;;;;;5055930;28;20205;-64
2022/08/12 07:15:54;;;;;;;2.30;1.58;;;41.60;32.90;;;;;;5055685;28;20540;-63
2022/08/12 07:18:22;;;;;;;2.08;1.45;;;41.90;32.90;;;;;;5057301;28;20372;-63
2022/08/12 07:20:49;;;;;;;3.05;1.50;;;42.20;31.80;;;;;;5056182;28;20205;-64
2022/08/12 07:23:17;;;;;;;5.38;1.60;;;41.90;32.10;;;;;;5056429;28;20248;-63
2022/08/12 07:25:45;;;;;;;1.48;1.33;;;41.40;32.40;;;;;;5055851;28;20748;-64
2022/08/12 07:28:15;;;;;;;1.65;1.45;;;41.00;32.90;;;;;;5054711;28;20623;-60
2022/08/12 07:30:43;;;;;;;3.58;1.63;;;41.00;32.60;;;;;;5056156;28;20376;-64
2022/08/12 07:33:12;;;;;;;2.92;1.70;;;40.20;33.20;;;;;;5055230;28;20705;-64
2022/08/12 07:35:42;;;;;;;4.70;1.50;;;39.40;33.70;;;;;;5056143;28;20206;-61
2022/08/12 07:38:23;;;;;;;3.65;1.70;;;38.70;34.40;;;;;;5056318;28;20216;-59
2022/08/12 07:40:52;;;;;;;2.22;1.52;;;38.50;34.80;;;;;;5056015;28;20296;-59
2022/08/12 07:43:19;;;;;;;1.50;1.40;;;38.70;34.40;;;;;;5056173;28;20253;-62
2022/08/12 07:45:46;;;;;;;3.95;1.90;;;38.60;34.40;;;;;;5039417;28;20476;-61
2022/08/12 07:48:13;;;;;;;2.38;1.63;;;38.20;35.00;;;;;;5044633;28;20592;-63
2022/08/12 07:50:40;;;;;;;3.28;1.60;;;38.30;35.00;;;;;;5056669;28;20205;-62
2022/08/12 07:53:07;;;;;;;1.80;1.50;;;38.60;34.80;;;;;;5055306;28;20599;-62
2022/08/12 07:55:34;;;;;;;5.60;2.13;;;38.90;34.50;;;;;;5056468;28;20210;-69
2022/08/12 07:58:02;;;;;;;4.22;1.80;;;39.30;34.20;;;;;;5056641;28;20201;-62
2022/08/12 08:00:32;;;;;;;4.93;1.58;;;39.30;33.70;;;;;;5055298;28;20269;-62
2022/08/12 08:03:00;;;;;;;4.57;1.63;;;39.40;33.70;;;;;;5054220;28;20288;-59
2022/08/12 08:05:29;;;;;;;3.13;1.17;;;39.30;33.70;;;;;;5054439;28;20407;-59
2022/08/12 08:08:01;;;;;;;4.38;1.55;;;39.20;33.60;;;;;;5053830;28;20225;-59
2022/08/12 08:10:28;;;;;;;3.60;1.65;;;39.10;33.40;;;;;;5054113;28;20619;-59
2022/08/12 08:12:57;;;;;;;2.35;1.73;;;38.60;33.80;;;;;;5053061;28;20667;-58
2022/08/12 08:15:29;;;;;;;4.82;1.52;;;38.10;33.70;;;;;;5052870;28;20197;-58
2022/08/12 08:18:00;;;;;;;2.25;1.65;;;37.50;34.70;;;;;;5054706;28;20211;-64
2022/08/12 08:20:29;;;;;;;2.05;1.55;;;37.60;34.50;;;;;;5055036;28;20408;-63
2022/08/12 08:22:57;;;;;;;3.30;1.58;;;38.00;34.00;;;;;;5039286;28;20897;-63
2022/08/12 08:25:29;;;;;;;2.95;1.60;;;38.30;33.90;;;;;;5027804;28;20650;-63
2022/08/12 08:27:58;;;;;;;2.45;1.50;;;38.60;33.70;;;;;;5034804;28;20225;-62
2022/08/12 08:30:27;;;;;;;3.00;1.58;;;38.80;33.30;;;;;;5034222;28;20284;-62
2022/08/12 08:32:55;;;;;;;1.27;1.17;;;38.70;33.30;;;;;;5033115;28;20257;-62
2022/08/12 08:35:22;;;;;;;3.50;1.50;;;38.20;34.10;;;;;;5034898;28;20284;-62
2022/08/12 08:37:49;;;;;;;2.17;1.73;;;37.10;35.20;;;;;;5034058;28;20206;-62
2022/08/12 08:43:02;;;;;;;3.53;1.70;;;33.70;38.70;;;;;;5038147;28;20228;-61
2022/08/12 08:45:30;;;;;;;3.88;1.42;;;32.40;39.90;;;;;;5037707;28;20733;-60
2022/08/12 08:47:58;;;;;;;2.58;1.73;;;31.40;40.90;;;;;;5038906;28;20280;-60
2022/08/12 08:50:25;;;;;;;2.80;1.50;;;30.50;42.70;;;;;;5038833;28;20666;-61
2022/08/12 08:52:51;;;;;;;2.53;1.30;;;29.60;43.50;;;;;;5038422;28;20226;-61
2022/08/12 08:55:18;;;;;;;2.75;1.40;;;28.80;44.60;;;;;;5037710;28;20203;-62
2022/08/12 08:57:49;;;;;;;4.03;1.40;;;28.30;44.80;;;;;;5034948;28;20245;-61
2022/08/12 09:00:17;;;;;;;2.30;1.58;;;28.00;45.80;;;;;;5034781;28;20217;-63
2022/08/12 09:02:46;;;;;;;2.53;1.63;;;27.80;45.90;;;;;;5034547;28;20233;-62
2022/08/12 09:05:13;;;;;;;2.53;1.50;;;27.70;46.70;;;;;;5034874;28;20206;-62
2022/08/12 09:07:43;;;;;;;3.83;1.60;;;27.50;46.40;;;;;;5034498;28;20702;-62
2022/08/12 09:10:11;;;;;;;2.80;1.60;;;27.40;46.80;;;;;;5034751;28;20234;-62
2022/08/12 09:15:22;;;;;;;4.45;1.50;;;27.00;47.30;;;;;;5034911;28;20196;-62
2022/08/12 09:17:54;;;;;;;1.67;1.50;;;26.90;47.20;;;;;;5035161;28;20206;-62
2022/08/12 09:20:25;;;;;;;3.38;1.45;;;26.90;47.80;;;;;;5035162;28;20274;-62
2022/08/12 09:22:53;;;;;;;1.83;1.50;;;27.10;47.30;;;;;;5034868;28;20226;-61
2022/08/12 09:25:20;;;;;;;2.95;1.40;;;27.10;46.90;;;;;;5034597;28;20695;-61
2022/08/12 09:27:48;;;;;;;6.43;1.52;;;27.10;47.20;;;;;;5034766;28;20222;-61
2022/08/12 09:30:16;;;;;;;2.13;1.40;;;27.00;47.30;;;;;;5034701;28;20233;-61
2022/08/12 09:32:49;;;;;;;3.33;1.48;;;27.10;47.50;;;;;;5034801;28;20710;-60
2022/08/12 09:35:19;;;;;;;3.90;1.38;;;27.10;47.20;;;;;;5035321;28;20670;-61
2022/08/12 09:37:47;;;;;;;5.70;1.30;;;27.10;47.20;;;;;;5035579;28;20265;-60
2022/08/12 09:40:14;;;;;;;2.20;1.40;;;27.00;47.10;;;;;;5035083;28;20613;-61
2022/08/12 09:45:26;;;;;;;4.43;1.60;;;27.00;47.30;;;;;;5035953;28;20200;-61
2022/08/12 09:47:54;;;;;;;5.13;1.70;;;27.10;46.90;;;;;;5035187;28;20291;-61
2022/08/12 09:50:22;;;;;;;1.48;1.35;;;27.20;47.00;;;;;;5035049;28;20218;-61
2022/08/12 09:53:04;;;;;;;2.00;1.13;;;27.30;46.80;;;;;;5036102;28;20225;-61
2022/08/12 09:55:32;;;;;;;3.50;1.20;;;27.30;46.40;;;;;;5036428;28;20701;-61
2022/08/12 09:57:59;;;;;;;2.92;1.45;;;27.40;45.80;;;;;;5037387;28;20290;-61
2022/08/12 10:00:27;;;;;;;2.20;1.30;;;27.40;45.50;;;;;;5035333;28;20206;-60
2022/08/12 10:03:02;;;;;;;2.08;1.48;;;27.50;45.50;;;;;;5037033;28;20241;-62
2022/08/12 10:05:35;;;;;;;1.55;1.30;;;27.60;45.40;;;;;;5037259;28;20739;-62
2022/08/12 10:08:03;;;;;;;6.40;1.52;;;27.70;45.60;;;;;;5037575;28;20254;-61
2022/08/12 10:10:30;;;;;;;2.72;1.40;;;27.80;45.50;;;;;;5036429;28;20197;-63
2022/08/12 10:15:45;;;;;;;2.75;1.17;;;27.80;44.20;;;;;;5036293;28;20210;-61
2022/08/12 10:18:13;;;;;;;1.88;1.35;;;27.70;44.30;;;;;;5036140;28;20274;-61
2022/08/12 10:20:42;;;;;;;2.45;1.50;;;27.80;44.10;;;;;;5035518;28;20206;-63
2022/08/12 10:23:08;;;;;;;2.95;1.30;;;27.90;44.50;;;;;;5036023;28;20237;-61
2022/08/12 10:31:04;;;;;;;1.67;1.30;;;27.90;44.50;;;;;;5035567;28;20205;-62
2022/08/12 10:33:32;;;;;;;2.45;1.17;;;28.10;44.30;;;;;;5036013;28;20202;-63
2022/08/12 10:36:01;;;;;;;2.65;1.30;;;28.30;44.10;;;;;;5036030;28;20214;-63
2022/08/12 10:38:28;;;;;;;1.80;1.30;;;28.30;44.10;;;;;;5035176;28;20202;-63
2022/08/12 10:43:42;;;;;;;4.20;1.50;;;28.60;43.60;;;;;;5034811;28;20201;-62
2022/08/12 10:46:15;;;;;;;1.50;1.05;;;28.70;43.20;;;;;;5033623;28;20666;-63
2022/08/12 10:48:46;;;;;;;2.22;1.63;;;28.80;42.00;;;;;;5031361;28;20225;-60
2022/08/12 10:51:17;;;;;;;1.52;1.33;;;28.80;42.20;;;;;;5033524;28;20217;-63
2022/08/12 10:53:45;;;;;;;1.70;1.17;;;28.90;42.10;;;;;;5034666;28;20301;-63
2022/08/12 10:56:12;;;;;;;3.65;1.13;;;29.10;42.20;;;;;;5034188;28;20210;-63
2022/08/12 10:58:39;;;;;;;2.97;1.50;;;29.20;42.40;;;;;;5033029;28;20215;-63
2022/08/12 11:01:09;;;;;;;4.78;1.33;;;29.30;42.90;;;;;;5031801;28;20566;-63
2022/08/12 11:03:36;;;;;;;1.83;1.38;;;29.40;43.20;;;;;;5032144;28;20201;-63
2022/08/12 11:06:05;;;;;;;2.65;1.38;;;29.30;42.80;;;;;;5032688;28;20206;-64
2022/08/12 11:08:36;;;;;;;1.77;1.33;;;29.20;43.00;;;;;;5032940;28;20596;-63
2022/08/12 11:11:04;;;;;;;3.40;1.60;;;29.20;42.50;;;;;;5032548;28;20205;-63
2022/08/12 11:13:31;;;;;;;2.33;1.40;;;29.30;42.10;;;;;;5033009;28;20252;-63
2022/08/12 11:15:58;;;;;;;2.05;1.38;;;29.60;42.30;;;;;;5032023;28;20639;-64
2022/08/12 11:18:24;;;;;;;3.35;1.45;;;29.80;41.80;;;;;;5032613;28;20210;-63
2022/08/12 11:20:53;;;;;;;3.33;1.50;;;30.00;41.70;;;;;;5031840;28;20297;-64
2022/08/12 11:23:20;;;;;;;3.38;1.60;;;30.20;41.20;;;;;;5032358;28;20706;-64
2022/08/12 11:25:49;;;;;;;2.67;1.48;;;30.20;41.30;;;;;;5033234;28;20210;-64
2022/08/12 11:28:16;;;;;;;2.08;1.50;;;30.30;41.40;;;;;;5032415;28;20329;-63
2022/08/12 11:30:44;;;;;;;4.80;1.50;;;30.20;41.50;;;;;;5032162;28;20615;-64
2022/08/12 11:33:11;;;;;;;3.22;1.42;;;30.10;41.60;;;;;;5033482;28;20230;-63
2022/08/12 11:35:40;;;;;;;5.00;1.50;;;30.10;42.40;;;;;;5033951;28;20332;-64
2022/08/12 11:38:07;;;;;;;2.30;1.48;;;30.20;41.70;;;;;;5034125;28;20202;-65
2022/08/12 11:40:34;;;;;;;4.05;2.53;;;30.40;41.20;;;;;;5032187;28;20511;-62
2022/08/12 11:43:02;;;;;;;7.65;4.88;;;30.80;41.20;;;;;;5032524;28;20236;-62
2022/08/12 11:45:30;;;;;;;1.80;1.42;;;31.10;41.00;;;;;;5033602;28;20218;-64
2022/08/12 11:47:58;;;;;;;3.60;1.40;;;30.90;40.70;;;;;;5033636;28;20226;-62
2022/08/12 11:50:25;;;;;;;3.30;1.48;;;30.80;40.70;;;;;;5031996;28;20974;-64
2022/08/12 11:52:52;;;;;;;1.35;1.15;;;30.60;41.50;;;;;;5031780;28;20730;-61
2022/08/12 11:55:19;;;;;;;1.52;1.40;;;30.20;42.00;;;;;;5032258;28;20207;-62
2022/08/12 11:57:50;;;;;;;1.67;1.30;;;30.20;42.00;;;;;;5032005;28;20311;-61
2022/08/12 12:00:18;;;;;;;1.30;1.10;;;30.40;41.00;;;;;;5031654;28;20272;-60
2022/08/12 12:02:45;;;;;;;4.28;1.10;;;30.70;40.70;;;;;;5031071;28;20242;-60
2022/08/12 12:05:14;;;;;;;1.52;1.20;;;31.10;40.30;;;;;;5031352;28;20674;-61
2022/08/12 12:07:42;;;;;;;3.70;1.40;;;31.20;39.70;;;;;;5030728;28;20690;-61
2022/08/12 12:10:09;;;;;;;3.15;1.30;;;31.10;39.70;;;;;;5031530;28;20210;-61
2022/08/12 12:12:36;;;;;;;2.63;1.20;;;30.70;39.90;;;;;;5031131;28;20226;-61
2022/08/12 12:15:03;;;;;;;2.15;1.15;;;30.40;40.10;;;;;;5030768;28;20210;-61
2022/08/12 12:17:35;;;;;;;3.25;1.70;;;30.30;41.90;;;;;;5030858;28;20301;-61
2022/08/12 12:20:02;;;;;;;3.00;1.50;;;30.20;42.30;;;;;;5030264;28;20682;-61
2022/08/12 12:22:29;;;;;;;2.63;1.50;;;30.20;42.90;;;;;;5029856;28;20836;-63
2022/08/12 12:24:56;;;;;;;2.08;1.40;;;30.10;42.70;;;;;;5031303;28;20202;-62
2022/08/12 12:27:22;;;;;;;3.17;1.40;;;30.00;42.40;;;;;;5030923;28;20689;-62
2022/08/12 12:29:49;;;;;;;2.10;1.40;;;30.30;42.00;;;;;;5030679;28;20206;-62
2022/08/12 12:32:16;;;;;;;1.73;1.33;;;30.50;41.50;;;;;;5030974;28;20226;-61
2022/08/12 12:34:44;;;;;;;4.63;1.35;;;30.70;41.20;;;;;;5031455;28;20206;-62
2022/08/12 12:37:12;;;;;;;1.40;1.30;;;30.60;41.30;;;;;;5030667;28;20309;-62
2022/08/12 12:39:38;;;;;;;1.85;1.38;;;30.50;41.40;;;;;;5031186;28;20198;-61
2022/08/12 12:42:05;;;;;;;3.65;1.58;;;30.30;42.00;;;;;;5030275;28;20230;-61
2022/08/12 12:44:32;;;;;;;3.72;1.40;;;30.10;41.80;;;;;;5031081;28;20209;-61
2022/08/12 12:46:59;;;;;;;1.75;1.20;;;30.20;41.60;;;;;;5030476;28;20206;-61
2022/08/12 12:49:26;;;;;;;3.75;1.30;;;30.60;41.00;;;;;;5031012;28;20588;-61
2022/08/12 12:51:54;;;;;;;1.92;1.30;;;30.90;40.20;;;;;;5030552;28;20284;-61
2022/08/12 12:54:22;;;;;;;4.60;1.25;;;31.30;39.80;;;;;;5030494;28;20210;-62
2022/08/12 12:56:51;;;;;;;2.85;1.20;;;31.60;39.00;;;;;;5030744;28;20674;-61
2022/08/12 12:59:19;;;;;;;1.88;1.20;;;31.70;39.10;;;;;;5030620;28;20256;-61
2022/08/12 13:01:46;;;;;;;2.58;1.67;;;31.90;38.80;;;;;;5029953;28;20234;-61
2022/08/12 13:04:12;;;;;;;4.45;1.10;;;32.00;38.80;;;;;;5030554;28;20618;-61
2022/08/12 13:06:40;;;;;;;1.60;1.40;;;32.20;38.50;;;;;;5029684;28;20301;-62
2022/08/12 13:09:11;;;;;;;3.60;1.42;;;32.00;38.80;;;;;;5030233;28;20324;-62
2022/08/12 13:11:39;;;;;;;2.92;1.20;;;31.80;39.00;;;;;;5030643;28;20320;-60
2022/08/12 13:14:07;;;;;;;1.98;1.10;;;31.70;39.20;;;;;;5030489;28;20215;-61
2022/08/12 13:16:34;;;;;;;3.72;1.15;;;31.60;39.50;;;;;;5030661;28;20213;-63
2022/08/12 13:19:01;;;;;;;3.63;1.17;;;31.50;39.90;;;;;;5030371;28;20213;-61
2022/08/12 13:21:31;;;;;;;1.88;1.23;;;31.40;39.90;;;;;;5030534;28;20248;-62
2022/08/12 13:24:01;;;;;;;2.20;1.05;;;31.50;39.60;;;;;;5030359;28;20206;-61
2022/08/12 13:26:33;;;;;;;3.45;1.20;;;31.60;39.10;;;;;;5032716;28;20216;-63
2022/08/12 13:29:00;;;;;;;3.17;1.15;;;31.60;38.80;;;;;;5034050;28;20832;-61
2022/08/12 13:31:27;;;;;;;1.83;1.02;;;31.60;38.80;;;;;;5033497;28;20776;-62
2022/08/12 13:33:54;;;;;;;1.55;1.00;;;31.60;38.80;;;;;;5034350;28;20248;-62
2022/08/12 13:36:21;;;;;;;2.97;1.08;;;31.80;39.00;;;;;;5033811;28;20213;-62
2022/08/12 13:38:50;;;;;;;2.35;1.10;;;31.80;38.90;;;;;;5034071;28;20206;-63
2022/08/12 13:41:31;;;;;;;2.33;1.30;;;32.00;38.70;;;;;;5033101;28;20295;-62
2022/08/12 13:43:59;;;;;;;2.00;1.08;;;32.10;38.10;;;;;;5033532;28;20578;-61
2022/08/12 13:46:26;;;;;;;1.67;1.30;;;32.20;38.10;;;;;;5033610;28;20214;-64
2022/08/12 13:48:55;;;;;;;1.75;1.10;;;32.10;38.10;;;;;;5033508;28;20226;-62
2022/08/12 13:51:22;;;;;;;1.65;1.10;;;32.00;38.20;;;;;;5033365;28;20230;-64
2022/08/12 13:53:49;;;;;;;3.28;0.98;;;31.90;39.20;;;;;;5033593;28;20235;-61
2022/08/12 13:56:16;;;;;;;1.50;1.08;;;31.50;38.60;;;;;;5033740;28;20206;-62
2022/08/12 13:58:50;;;;;;;2.05;1.10;;;31.20;39.70;;;;;;5033626;28;20675;-61
2022/08/12 14:01:19;;;;;;;1.95;1.08;;;30.90;39.50;;;;;;5033222;28;20230;-63
2022/08/12 14:03:46;;;;;;;2.25;1.15;;;30.70;39.60;;;;;;5033202;28;20274;-61
2022/08/12 14:06:13;;;;;;;4.00;1.42;;;30.60;39.40;;;;;;5032915;28;20702;-61
2022/08/12 14:08:40;;;;;;;4.40;1.30;;;30.70;39.60;;;;;;5033183;28;20272;-62
2022/08/12 14:11:07;;;;;;;1.77;1.05;;;31.10;39.40;;;;;;5032971;28;20591;-63
2022/08/12 14:13:38;;;;;;;0.98;0.82;;;31.50;38.80;;;;;;5033376;28;20214;-62
2022/08/12 14:16:06;;;;;;;4.43;1.35;;;31.80;38.50;;;;;;5033416;28;20743;-62
2022/08/12 14:18:37;;;;;;;1.55;1.10;;;31.90;37.80;;;;;;5032829;28;20685;-63
2022/08/12 14:21:08;;;;;;;3.38;0.90;;;31.90;38.20;;;;;;5033257;28;20297;-63
2022/08/12 14:23:36;;;;;;;1.23;0.82;;;32.00;37.90;;;;;;5033220;28;20218;-63
2022/08/12 14:26:05;;;;;;;4.38;1.13;;;32.10;37.40;;;;;;5032934;28;20705;-64
2022/08/12 14:28:35;;;;;;;4.50;1.20;;;32.10;37.90;;;;;;5032705;28;20257;-63
2022/08/12 14:31:03;;;;;;;3.90;1.20;;;31.80;38.80;;;;;;5032858;28;20210;-64
2022/08/12 14:33:32;;;;;;;3.90;1.13;;;31.80;38.20;;;;;;5033703;28;20217;-62
2022/08/12 14:36:02;;;;;;;1.42;0.95;;;31.60;38.50;;;;;;5033614;28;20697;-63
2022/08/12 14:38:30;;;;;;;1.67;0.95;;;31.50;38.60;;;;;;5033409;28;20230;-64
2022/08/12 14:41:00;;;;;;;2.77;1.10;;;31.10;39.20;;;;;;5032478;28;20461;-64
2022/08/12 14:43:32;;;;;;;4.85;0.98;;;30.70;39.80;;;;;;5034109;28;20210;-64